Time;durP1;ratioP1;P1;durP2;ratioP2;P2;SDS_P1;SDS_P2;PMS_P1;PMS_P2;Temp;Humidity;BMP_temperature;BMP_pressure;BME280_temperature;BME280_humidity;BME280_pressure;Samples;Min_cycle;Max_cycle;Signal;HPM_P1;HPM_P2
2023/07/23 00:04:08;;;;;;;6.00;4.22;;;;;;;;;;10606274;27;20043;-78
2023/07/23 00:09:09;;;;;;;5.35;4.75;;;;;;;;;;10612347;27;20042;-82
2023/07/23 00:14:09;;;;;;;4.68;4.10;;;;;;;;;;10613132;27;20041;-77
2023/07/23 00:19:15;;;;;;;4.93;4.03;;;;;;;;;;10608011;27;20032;-79
2023/07/23 00:24:17;;;;;;;5.82;4.45;;;;;;;;;;10592989;27;20046;-79
2023/07/23 00:29:18;;;;;;;5.83;4.30;;;;;;;;;;10612652;27;20062;-79
2023/07/23 00:34:19;;;;;;;5.03;4.07;;;;;;;;;;10616075;27;20326;-80
2023/07/23 00:39:20;;;;;;;4.83;4.23;;;;;;;;;;10620665;27;21067;-79
2023/07/23 00:44:20;;;;;;;4.57;4.18;;;;;;;;;;10608310;27;20110;-79
2023/07/23 00:49:20;;;;;;;5.43;4.07;;;;;;;;;;10609367;27;20512;-79
2023/07/23 00:54:21;;;;;;;7.45;4.07;;;;;;;;;;10581535;27;20076;-80
2023/07/23 00:59:21;;;;;;;5.45;4.10;;;;;;;;;;10603847;27;20394;-78
2023/07/23 01:04:22;;;;;;;5.68;4.10;;;;;;;;;;10605570;27;20623;-78
2023/07/23 01:09:22;;;;;;;4.40;4.00;;;;;;;;;;10585232;27;20040;-79
2023/07/23 01:14:23;;;;;;;4.82;3.90;;;;;;;;;;10591926;27;20297;-79
2023/07/23 01:19:26;;;;;;;5.28;4.28;;;;;;;;;;10614946;27;20039;-77
2023/07/23 01:24:27;;;;;;;6.60;4.40;;;;;;;;;;10599736;27;20064;-77
2023/07/23 01:29:27;;;;;;;4.85;4.25;;;;;;;;;;10579246;27;20038;-77
2023/07/23 01:34:28;;;;;;;3.70;3.38;;;;;;;;;;10600913;27;20027;-78
2023/07/23 01:39:28;;;;;;;5.07;4.20;;;;;;;;;;10589115;27;20035;-78
2023/07/23 01:44:28;;;;;;;4.80;4.23;;;;;;;;;;10621819;27;20633;-79
2023/07/23 01:49:29;;;;;;;5.28;4.28;;;;;;;;;;10592079;27;20064;-81
2023/07/23 01:54:30;;;;;;;6.28;4.35;;;;;;;;;;10585841;27;20688;-80
2023/07/23 01:59:30;;;;;;;5.10;4.20;;;;;;;;;;10589663;27;20039;-79
2023/07/23 02:04:30;;;;;;;4.37;3.73;;;;;;;;;;10583604;27;20034;-79
2023/07/23 02:09:31;;;;;;;5.07;4.10;;;;;;;;;;10599411;27;20725;-78
2023/07/23 02:14:34;;;;;;;5.03;4.25;;;;;;;;;;10606159;27;20349;-78
2023/07/23 02:19:36;;;;;;;4.20;3.80;;;;;;;;;;10602054;27;21097;-78
2023/07/23 02:24:37;;;;;;;4.72;4.03;;;;;;;;;;10599184;27;20046;-78
2023/07/23 02:29:38;;;;;;;6.03;4.37;;;;;;;;;;10608309;27;20065;-79
2023/07/23 02:34:38;;;;;;;5.88;4.43;;;;;;;;;;10607996;27;20284;-78
2023/07/23 02:39:39;;;;;;;5.53;4.33;;;;;;;;;;10586739;27;20031;-80
2023/07/23 02:44:39;;;;;;;5.15;4.20;;;;;;;;;;10593649;27;20351;-77
2023/07/23 02:49:40;;;;;;;5.83;4.27;;;;;;;;;;10596313;27;20066;-78
2023/07/23 07:19:53;;;;;;;4.03;2.73;;;;;;;22.69;84.14;98087.06;10238115;22;8640549;-79
2023/07/23 07:24:54;;;;;;;3.05;2.75;;;;;;;23.34;77.92;98087.84;10478240;28;20099;-74
2023/07/23 07:29:54;;;;;;;3.75;3.15;;;;;;;23.92;73.77;98083.06;10488864;28;20559;-79
2023/07/23 07:34:55;;;;;;;3.58;2.92;;;;;;;24.34;69.73;98086.31;10479139;28;20040;-77
2023/07/23 07:39:56;;;;;;;4.53;2.60;;;;;;;25.17;62.22;98073.34;10467194;28;20044;-75
2023/07/23 07:44:56;;;;;;;4.22;2.65;;;;;;;25.45;60.91;98080.19;10494025;28;20047;-77
2023/07/23 07:49:57;;;;;;;4.88;2.85;;;;;;;25.53;56.02;98072.53;10496700;28;20071;-74
2023/07/23 07:54:59;;;;;;;3.22;2.92;;;;;;;25.76;55.71;98071.63;10486408;28;20521;-79
2023/07/23 08:00:03;;;;;;;4.65;3.00;;;;;;;25.99;54.99;98063.22;10482576;28;20044;-74
2023/07/23 08:05:11;;;;;;;3.90;2.70;;;;;;;26.18;52.61;98063.53;10485794;28;20145;-76
2023/07/23 08:10:12;;;;;;;2.88;2.45;;;;;;;26.17;49.88;98064.75;10462839;28;20045;-73
2023/07/23 08:15:13;;;;;;;3.42;2.65;;;;;;;26.80;48.81;98056.00;10481224;28;20044;-75
2023/07/23 08:20:14;;;;;;;5.20;2.75;;;;;;;26.69;47.12;98052.75;10480416;28;20036;-81
2023/07/23 08:25:15;;;;;;;3.53;2.70;;;;;;;26.78;46.56;98048.16;10488855;28;20167;-78
2023/07/23 08:30:16;;;;;;;2.60;2.35;;;;;;;26.81;47.80;98047.28;10461444;28;20557;-79
2023/07/23 08:35:17;;;;;;;4.73;2.83;;;;;;;26.97;46.86;98046.41;10456439;28;20164;-77
2023/07/23 08:40:19;;;;;;;2.83;2.30;;;;;;;27.25;47.02;98039.34;10469796;28;20043;-78
2023/07/23 08:45:44;;;;;;;3.63;2.60;;;;;;;27.04;46.56;98029.72;10452051;28;20748;-83
2023/07/23 08:50:48;;;;;;;2.47;2.20;;;;;;;27.13;45.61;98038.09;10461335;28;20052;-78
2023/07/23 08:55:48;;;;;;;6.32;2.22;;;;;;;27.12;46.04;98035.78;10445656;28;20044;-80
2023/07/23 09:00:49;;;;;;;3.65;2.33;;;;;;;27.58;44.66;98045.38;10454518;28;20087;-78
2023/07/23 09:05:50;;;;;;;3.00;2.40;;;;;;;27.63;42.92;98033.81;10456412;28;20052;-81
2023/07/23 09:10:50;;;;;;;3.95;2.13;;;;;;;27.83;42.09;98030.81;10437382;28;20048;-80
2023/07/23 09:15:54;;;;;;;3.47;2.30;;;;;;;27.78;42.50;98029.38;10440533;28;20037;-81
2023/07/23 09:20:57;;;;;;;4.00;2.20;;;;;;;27.89;42.44;98042.84;10431704;28;20060;-78
2023/07/23 09:25:59;;;;;;;2.47;2.22;;;;;;;27.61;42.14;98027.94;10461756;28;20773;-77
2023/07/23 09:31:00;;;;;;;2.60;2.40;;;;;;;27.42;42.50;98028.94;10448986;28;20033;-76
2023/07/23 09:36:02;;;;;;;3.15;2.28;;;;;;;28.23;41.91;98027.50;10442751;28;20036;-78
2023/07/23 09:41:02;;;;;;;;;;;;;;;28.31;40.93;98032.34;10451845;28;20041;-85
2023/07/23 09:46:03;;;;;;;2.63;2.43;;;;;;;28.67;41.29;98020.03;10460528;28;20470;-83
2023/07/23 09:51:04;;;;;;;2.97;2.05;;;;;;;29.26;41.12;98025.72;10445127;28;20280;-81
2023/07/23 09:56:05;;;;;;;2.90;2.60;;;;;;;29.18;39.96;98020.50;10467736;28;20045;-78
2023/07/23 10:01:06;;;;;;;3.93;2.77;;;;;;;29.28;39.57;98013.00;10455666;28;20454;-79
2023/07/23 10:06:11;;;;;;;2.50;2.30;;;;;;;29.43;38.68;98013.97;10453957;28;20045;-79
2023/07/23 10:11:13;;;;;;;4.30;2.47;;;;;;;29.70;37.79;98012.53;10458950;28;20060;-76
2023/07/23 10:16:32;;;;;;;;;;;;;;;29.77;37.66;98003.94;10454541;28;20067;-76
2023/07/23 10:21:34;;;;;;;2.97;2.50;;;;;;;29.86;38.11;97989.34;10454633;28;19928;-77
2023/07/23 10:26:41;;;;;;;;;;;;;;;29.87;37.99;97993.66;10455957;28;20037;-78
2023/07/23 10:31:45;;;;;;;3.08;2.47;;;;;;;29.71;37.24;97987.19;10450319;28;19960;-76
2023/07/23 10:37:09;;;;;;;4.30;2.45;;;;;;;29.73;36.45;97990.28;10448429;28;20040;-75
2023/07/23 10:42:36;;;;;;;2.80;2.30;;;;;;;30.26;36.04;97980.94;10424523;28;20063;-78
2023/07/23 10:47:37;;;;;;;3.35;2.45;;;;;;;30.04;34.56;97967.22;10450664;28;20037;-76
2023/07/23 10:52:38;;;;;;;2.93;2.27;;;;;;;30.14;35.27;97957.72;10445835;28;20152;-77
2023/07/23 10:57:41;;;;;;;3.35;2.70;;;;;;;30.00;35.39;97961.84;10444189;28;20033;-77
2023/07/23 11:02:46;;;;;;;4.03;2.50;;;;;;;30.15;33.90;97959.25;10454921;28;20052;-75
2023/07/23 11:08:13;;;;;;;3.50;2.75;;;;;;;29.58;34.93;97956.13;10446394;28;20798;-79
2023/07/23 11:13:15;;;;;;;3.42;2.25;;;;;;;29.92;34.58;97949.56;10453306;28;20433;-77
2023/07/23 11:18:16;;;;;;;2.88;2.50;;;;;;;29.91;33.69;97945.25;10429155;28;20094;-75
2023/07/23 11:23:19;;;;;;;4.23;2.53;;;;;;;30.11;35.78;97939.28;10450616;28;20102;-78
2023/07/23 11:28:22;;;;;;;2.90;2.60;;;;;;;30.38;35.23;97929.41;10447891;28;20053;-77
2023/07/23 11:33:27;;;;;;;3.25;2.53;;;;;;;30.34;32.06;97931.53;10447379;28;20039;-77
2023/07/23 11:38:30;;;;;;;4.07;2.90;;;;;;;30.91;31.94;97934.47;10433206;28;20320;-76
2023/07/23 11:43:34;;;;;;;2.88;2.33;;;;;;;30.76;31.72;97932.38;10433448;28;20041;-78
2023/07/23 11:48:36;;;;;;;3.05;2.28;;;;;;;30.57;30.11;97926.09;10427468;28;20056;-74
2023/07/23 11:53:37;;;;;;;3.20;2.50;;;;;;;30.37;31.02;97922.31;10448876;28;20041;-77
2023/07/23 11:58:38;;;;;;;;;;;;;;;30.33;30.91;97911.38;10451459;28;20044;-77
2023/07/23 12:03:42;;;;;;;3.77;2.70;;;;;;;30.32;32.49;97909.84;10437017;28;19924;-75
2023/07/23 12:08:45;;;;;;;4.95;2.60;;;;;;;30.54;32.10;97921.50;10438193;28;20660;-78
2023/07/23 12:13:51;;;;;;;2.90;2.30;;;;;;;30.28;32.36;97912.81;10458454;28;20068;-76
2023/07/23 12:18:51;;;;;;;4.03;2.88;;;;;;;29.76;32.18;97922.19;10444472;28;20103;-77
2023/07/23 12:23:51;;;;;;;2.63;2.30;;;;;;;29.50;31.35;97910.63;10461684;28;20040;-78
2023/07/23 12:28:52;;;;;;;3.30;2.40;;;;;;;29.65;31.66;97908.81;10452752;28;20040;-77
2023/07/23 12:33:52;;;;;;;3.73;2.27;;;;;;;29.53;31.57;97900.63;10437524;28;20130;-77
2023/07/23 12:38:53;;;;;;;2.63;2.10;;;;;;;29.73;32.03;97898.97;10454436;28;21192;-78
2023/07/23 12:43:53;;;;;;;3.00;2.43;;;;;;;29.65;31.85;97899.75;10416384;28;20041;-76
2023/07/23 12:48:55;;;;;;;2.63;2.30;;;;;;;30.00;31.69;97894.66;10453801;28;20063;-77
2023/07/23 12:53:55;;;;;;;4.23;2.50;;;;;;;30.20;31.03;97883.13;10453715;28;20037;-76
2023/07/23 12:58:56;;;;;;;2.90;2.13;;;;;;;30.41;30.94;97884.16;10453984;28;20792;-75
2023/07/23 13:03:57;;;;;;;3.33;2.20;;;;;;;30.35;30.92;97874.94;10438572;28;20045;-78
2023/07/23 13:08:57;;;;;;;2.70;2.23;;;;;;;30.23;30.78;97880.19;10451568;28;20089;-78
2023/07/23 13:13:58;;;;;;;3.30;2.47;;;;;;;30.46;30.30;97870.44;10457812;28;20048;-76
2023/07/23 13:18:58;;;;;;;2.70;2.27;;;;;;;30.71;30.01;97871.28;10464984;28;20052;-74
2023/07/23 13:23:59;;;;;;;2.90;2.00;;;;;;;31.24;29.35;97865.19;10454109;28;20045;-78
2023/07/23 13:29:01;;;;;;;3.50;2.30;;;;;;;30.82;28.50;97864.03;10446121;28;20418;-78
2023/07/23 13:34:02;;;;;;;2.40;2.13;;;;;;;30.99;28.50;97864.38;10422500;28;20482;-76
2023/07/23 13:39:02;;;;;;;2.10;1.87;;;;;;;30.89;29.64;97862.13;10448870;28;20135;-75
2023/07/23 13:44:06;;;;;;;4.00;2.10;;;;;;;30.09;29.24;97861.47;10452731;28;20048;-75
2023/07/23 13:49:07;;;;;;;4.32;2.00;;;;;;;29.87;29.47;97855.31;10431161;28;20071;-74
2023/07/23 13:54:08;;;;;;;2.58;1.98;;;;;;;30.11;29.67;97863.78;10450790;28;20056;-76
2023/07/23 13:59:08;;;;;;;2.67;2.20;;;;;;;29.92;29.29;97861.00;10450331;28;20427;-74
2023/07/23 14:04:09;;;;;;;4.90;2.37;;;;;;;29.49;29.88;97864.84;10453410;28;20051;-74
2023/07/23 14:09:09;;;;;;;2.50;2.00;;;;;;;29.10;31.51;97894.88;10450697;28;20068;-74
2023/07/23 14:14:11;;;;;;;2.40;2.20;;;;;;;28.74;32.23;97898.25;10449851;28;20033;-81
2023/07/23 14:19:12;;;;;;;;;;;;;;;28.94;32.89;97897.88;10485503;28;20308;-78
2023/07/23 14:24:13;;;;;;;2.57;2.30;;;;;;;28.98;33.49;97900.50;10505834;28;19943;-82
2023/07/23 14:29:14;;;;;;;3.10;2.30;;;;;;;29.05;34.10;97902.97;10479547;28;20053;-82
2023/07/23 14:34:14;;;;;;;3.33;2.07;;;;;;;28.95;32.89;97899.41;10479016;28;20028;-81
2023/07/23 14:39:15;;;;;;;2.70;2.27;;;;;;;28.97;34.25;97899.72;10496119;28;20056;-75
2023/07/23 14:44:15;;;;;;;3.57;2.27;;;;;;;28.93;35.04;97898.34;10467781;28;20049;-77
2023/07/23 14:49:19;;;;;;;2.83;2.20;;;;;;;28.51;35.13;97899.50;10460262;28;20196;-75
2023/07/23 14:54:19;;;;;;;2.55;2.20;;;;;;;28.51;35.77;97898.72;10434762;28;20047;-74
2023/07/23 14:59:20;;;;;;;2.83;2.40;;;;;;;28.70;35.53;97888.53;10476924;28;20056;-83
2023/07/23 15:04:21;;;;;;;2.90;2.33;;;;;;;28.59;36.15;97897.25;10456255;28;20046;-79
2023/07/23 15:09:22;;;;;;;2.70;2.43;;;;;;;28.67;36.80;97894.97;10448391;28;20129;-79
2023/07/23 15:14:22;;;;;;;3.07;2.50;;;;;;;28.49;37.86;97893.66;10432582;28;20172;-78
2023/07/23 15:19:23;;;;;;;3.33;2.83;;;;;;;28.60;38.74;97891.25;10449423;28;20049;-81
2023/07/23 15:24:24;;;;;;;2.60;2.40;;;;;;;28.90;40.08;97902.78;10451536;28;20068;-87
2023/07/23 15:29:33;;;;;;;3.63;2.87;;;;;;;28.55;38.88;97891.88;10447039;28;20032;-81
2023/07/23 15:34:35;;;;;;;3.85;2.88;;;;;;;29.03;38.80;97877.78;10452323;28;20495;-81
2023/07/23 15:39:36;;;;;;;4.10;3.00;;;;;;;28.78;40.30;97884.28;10445154;28;20111;-79
2023/07/23 15:44:37;;;;;;;3.10;2.80;;;;;;;28.57;40.43;97886.66;10455164;28;20056;-81
2023/07/23 15:49:37;;;;;;;4.60;3.00;;;;;;;28.64;40.05;97884.84;10448570;28;20040;-80
2023/07/23 15:54:37;;;;;;;4.87;3.00;;;;;;;28.41;40.29;97886.88;10450667;28;20048;-76
2023/07/23 15:59:38;;;;;;;3.63;2.67;;;;;;;28.19;37.85;97886.13;10446099;28;20119;-77
2023/07/23 16:04:39;;;;;;;4.37;2.80;;;;;;;28.10;39.85;97895.09;10432141;28;20075;-79
2023/07/23 16:09:40;;;;;;;4.32;3.20;;;;;;;28.15;37.31;97888.22;10426530;28;20041;-79
2023/07/23 16:14:40;;;;;;;3.33;2.43;;;;;;;28.26;36.33;97888.63;10420444;28;20676;-88
2023/07/23 16:19:41;;;;;;;4.27;3.10;;;;;;;28.29;35.25;97891.25;10449621;28;21615;-80
2023/07/23 16:24:42;;;;;;;3.37;3.00;;;;;;;28.43;35.09;97891.94;10435545;28;20430;-76
2023/07/23 16:29:44;;;;;;;7.47;4.90;;;;;;;28.50;34.65;97886.16;10464754;28;20127;-80
2023/07/23 16:34:45;;;;;;;3.72;2.90;;;;;;;28.42;35.09;97877.38;10461684;28;20505;-74
2023/07/23 16:39:47;;;;;;;4.00;3.00;;;;;;;28.50;35.26;97867.59;10432286;28;20052;-77
2023/07/23 16:44:47;;;;;;;4.10;2.97;;;;;;;28.61;36.80;97865.19;10454387;28;20056;-80
2023/07/23 16:49:49;;;;;;;5.30;3.10;;;;;;;28.40;35.72;97856.97;10453745;28;20610;-77
2023/07/23 16:54:51;;;;;;;4.57;3.28;;;;;;;28.29;36.24;97866.41;10446794;28;20094;-75
2023/07/23 16:59:52;;;;;;;3.67;2.80;;;;;;;28.22;36.63;97854.84;10431241;28;20040;-76
2023/07/23 17:04:53;;;;;;;3.47;2.70;;;;;;;28.31;37.35;97854.94;10452467;28;20041;-78
2023/07/23 17:09:53;;;;;;;3.17;2.87;;;;;;;28.27;37.54;97860.56;10451664;28;20037;-83
2023/07/23 17:14:54;;;;;;;6.30;4.30;;;;;;;28.01;37.56;97848.91;10453422;28;20037;-76
2023/07/23 17:19:55;;;;;;;6.07;4.68;;;;;;;27.96;38.98;97855.00;10451624;28;20048;-77
2023/07/23 17:24:56;;;;;;;6.97;4.80;;;;;;;27.68;36.56;97853.25;10448292;28;20836;-78
2023/07/23 17:29:56;;;;;;;6.60;4.03;;;;;;;27.60;35.37;97857.44;10451263;28;20040;-77
2023/07/23 17:34:57;;;;;;;6.05;4.90;;;;;;;27.46;35.96;97858.72;10456824;28;20132;-81
2023/07/23 17:39:57;;;;;;;5.87;4.07;;;;;;;27.33;35.87;97863.47;10448483;28;20055;-80
2023/07/23 17:44:58;;;;;;;5.53;3.60;;;;;;;27.21;37.33;97862.31;10451555;28;20040;-74
2023/07/23 17:49:59;;;;;;;4.20;3.33;;;;;;;27.00;39.28;97860.22;10435394;28;20129;-79
2023/07/23 17:55:00;;;;;;;5.65;3.85;;;;;;;26.56;40.26;97860.03;10472804;28;20132;-84
2023/07/23 18:00:00;;;;;;;5.65;3.45;;;;;;;26.59;40.53;97857.16;10441711;28;20056;-83
2023/07/23 18:05:02;;;;;;;4.60;3.55;;;;;;;26.65;41.44;97862.91;10471347;28;20400;-86
2023/07/23 18:10:07;;;;;;;4.63;3.50;;;;;;;26.72;42.28;97865.44;10467032;28;20070;-88
2023/07/23 18:15:08;;;;;;;6.43;4.40;;;;;;;26.69;42.93;97858.03;10478961;28;20102;-82
2023/07/23 18:20:11;;;;;;;6.28;3.50;;;;;;;26.61;43.54;97852.00;10444116;28;20126;-75
2023/07/23 18:25:11;;;;;;;4.38;3.13;;;;;;;26.45;43.89;97843.06;10449387;28;20040;-78
2023/07/23 18:30:12;;;;;;;4.60;3.28;;;;;;;26.51;43.85;97846.81;10455068;28;20048;-85
2023/07/23 18:35:20;;;;;;;5.30;3.50;;;;;;;26.48;43.87;97836.69;10435867;28;20045;-83
2023/07/23 18:40:21;;;;;;;5.97;4.38;;;;;;;26.39;43.95;97839.31;10450531;28;20066;-84
2023/07/23 18:45:22;;;;;;;4.88;3.35;;;;;;;26.19;44.16;97828.50;10451986;28;20051;-84
2023/07/23 18:50:24;;;;;;;5.68;3.47;;;;;;;26.15;44.25;97825.84;10443992;28;20067;-84
2023/07/23 18:55:25;;;;;;;3.88;2.90;;;;;;;26.11;46.32;97821.66;10456295;28;20047;-85
2023/07/23 19:00:33;;;;;;;4.15;3.20;;;;;;;25.87;48.53;97818.41;10487714;28;20044;-86
2023/07/23 19:05:34;;;;;;;4.20;3.42;;;;;;;25.58;49.33;97824.66;10444216;28;20094;-80
2023/07/23 19:10:42;;;;;;;3.78;3.10;;;;;;;25.44;52.57;97805.81;10459800;28;20049;-85
2023/07/23 19:15:45;;;;;;;5.00;3.90;;;;;;;25.28;51.93;97808.59;10477968;28;20053;-87
2023/07/23 19:20:45;;;;;;;5.13;4.38;;;;;;;25.17;51.80;97814.38;10492470;28;20037;-84
2023/07/23 19:25:46;;;;;;;6.18;4.38;;;;;;;24.99;52.92;97801.06;10489683;28;20098;-84
2023/07/23 19:30:50;;;;;;;7.53;4.10;;;;;;;24.85;56.94;97796.69;10475133;28;20098;-87
2023/07/23 19:35:50;;;;;;;5.35;4.35;;;;;;;24.81;60.55;97795.25;10470643;28;20095;-78
2023/07/23 19:40:51;;;;;;;6.05;4.63;;;;;;;24.77;66.36;97789.06;10448953;28;20110;-78
2023/07/23 19:45:52;;;;;;;6.10;4.40;;;;;;;24.63;66.58;97799.19;10447924;28;20051;-78
2023/07/23 19:50:52;;;;;;;6.60;3.80;;;;;;;24.44;69.76;97797.28;10445119;28;20911;-78
2023/07/23 19:55:54;;;;;;;4.90;3.88;;;;;;;24.38;70.49;97788.00;10437208;28;20040;-77
2023/07/23 20:00:54;;;;;;;6.00;4.32;;;;;;;24.31;71.83;97788.13;10448022;28;20044;-79
2023/07/23 20:05:55;;;;;;;5.32;4.20;;;;;;;24.19;67.51;97806.03;10446830;28;20052;-77
2023/07/23 20:10:56;;;;;;;6.22;4.75;;;;;;;24.20;71.02;97818.53;10440029;28;20075;-77
2023/07/23 20:15:57;;;;;;;4.93;3.90;;;;;;;24.13;67.37;97830.44;10446894;28;20033;-79
2023/07/23 20:20:58;;;;;;;4.75;3.92;;;;;;;24.07;70.26;97828.63;10438003;28;20858;-76
2023/07/23 20:25:58;;;;;;;6.13;4.60;;;;;;;23.97;72.59;97832.38;10447136;28;20064;-76
2023/07/23 20:31:00;;;;;;;6.05;4.00;;;;;;;23.76;72.12;97833.56;10452589;28;20454;-76
2023/07/23 20:36:01;;;;;;;6.37;4.40;;;;;;;23.62;73.21;97831.09;10446918;28;20079;-77
2023/07/23 20:41:02;;;;;;;6.65;4.63;;;;;;;23.56;75.53;97830.78;10451732;28;20075;-76
2023/07/23 20:46:03;;;;;;;6.03;4.23;;;;;;;23.49;77.23;97819.94;10448794;28;20601;-76
2023/07/23 20:51:03;;;;;;;6.78;4.38;;;;;;;-144.32;100.00;68061.97;10426096;28;20053;-75
2023/07/23 20:56:04;;;;;;;6.65;4.47;;;;;;;-144.32;100.00;68061.97;10451320;28;20110;-75
2023/07/23 21:01:04;;;;;;;7.35;4.03;;;;;;;-144.32;100.00;68061.97;10438753;28;20048;-74
2023/07/23 21:06:05;;;;;;;5.25;3.80;;;;;;;-144.32;100.00;68061.97;10453389;28;20388;-75
2023/07/23 21:11:05;;;;;;;6.53;4.28;;;;;;;-144.32;100.00;68061.97;10431123;28;20072;-75
2023/07/23 21:16:06;;;;;;;5.78;3.95;;;;;;;-144.32;100.00;68061.97;10448619;28;20076;-74
2023/07/23 21:21:06;;;;;;;4.97;3.90;;;;;;;-144.32;100.00;68061.97;10445763;28;20045;-76
2023/07/23 21:26:07;;;;;;;5.50;4.25;;;;;;;-144.32;100.00;68061.97;10452805;28;20055;-78
2023/07/23 21:31:07;;;;;;;6.22;5.05;;;;;;;-144.32;100.00;68061.97;10452413;28;20168;-78
2023/07/23 21:36:10;;;;;;;6.47;4.70;;;;;;;-144.32;100.00;68061.97;10454749;28;20045;-77
2023/07/23 21:41:12;;;;;;;6.75;4.20;;;;;;;-144.32;100.00;68061.97;10429492;28;20040;-79
2023/07/23 21:46:12;;;;;;;6.20;4.63;;;;;;;-144.32;100.00;68061.97;10450010;28;20122;-76
2023/07/23 21:51:13;;;;;;;5.13;3.80;;;;;;;-144.32;100.00;68061.97;10453850;28;20110;-77
2023/07/23 21:56:14;;;;;;;6.43;4.50;;;;;;;-144.32;100.00;68061.97;10459340;28;20060;-77
2023/07/23 22:01:14;;;;;;;6.93;4.90;;;;;;;-144.32;100.00;68061.97;10430535;28;20037;-78
2023/07/23 22:06:14;;;;;;;7.05;4.88;;;;;;;-144.32;100.00;68061.97;10446807;28;20051;-77
2023/07/23 22:11:15;;;;;;;7.80;5.88;;;;;;;-144.32;100.00;68061.97;10447419;28;20499;-78
2023/07/23 22:16:15;;;;;;;6.15;4.68;;;;;;;-144.32;100.00;68061.97;10446150;28;20048;-78
2023/07/23 22:21:17;;;;;;;6.70;4.60;;;;;;;-144.32;100.00;68061.97;10448082;28;20040;-77
2023/07/23 22:26:18;;;;;;;5.93;4.33;;;;;;;-144.32;100.00;68061.97;10443879;28;20114;-76
2023/07/23 22:31:19;;;;;;;6.38;4.47;;;;;;;-144.32;100.00;68061.97;10451232;28;20037;-76
2023/07/23 22:36:20;;;;;;;6.67;5.20;;;;;;;-144.32;100.00;68061.97;10454651;28;20423;-77
2023/07/23 22:41:20;;;;;;;5.72;4.18;;;;;;;-144.32;100.00;68061.97;10487013;28;20283;-76
2023/07/23 22:46:21;;;;;;;6.50;4.68;;;;;;;-144.32;100.00;68061.97;10441892;28;20048;-77
2023/07/23 22:51:21;;;;;;;8.23;5.07;;;;;;;-144.32;100.00;68061.97;10448980;28;20159;-76
2023/07/23 22:56:22;;;;;;;7.97;4.95;;;;;;;-144.32;100.00;68061.97;10442926;28;20491;-75
2023/07/23 23:01:23;;;;;;;7.95;4.95;;;;;;;-144.32;100.00;68061.97;10444750;28;20520;-77
2023/07/23 23:06:25;;;;;;;6.30;4.57;;;;;;;-144.32;100.00;68061.97;10450227;28;20390;-77
2023/07/23 23:11:26;;;;;;;7.30;4.82;;;;;;;-144.32;100.00;68061.97;10445564;28;20040;-76
2023/07/23 23:16:26;;;;;;;6.05;4.70;;;;;;;-144.32;100.00;68061.97;10445183;28;20097;-75
2023/07/23 23:21:27;;;;;;;8.48;4.85;;;;;;;-144.32;100.00;68061.97;10425972;28;20846;-77
2023/07/23 23:26:27;;;;;;;7.82;5.30;;;;;;;-144.32;100.00;68061.97;10445727;28;20048;-76
2023/07/23 23:31:28;;;;;;;6.30;4.63;;;;;;;-144.32;100.00;68061.97;10446303;28;20053;-75
2023/07/23 23:36:28;;;;;;;8.15;5.28;;;;;;;-144.32;100.00;68061.97;10425864;28;20044;-74
2023/07/23 23:41:29;;;;;;;7.13;4.65;;;;;;;-144.32;100.00;68061.97;10439303;28;20598;-75
2023/07/23 23:46:29;;;;;;;6.40;4.75;;;;;;;-144.32;100.00;68061.97;10439511;28;20041;-76
2023/07/23 23:51:30;;;;;;;7.43;5.07;;;;;;;-144.32;100.00;68061.97;10447045;28;20152;-76
2023/07/23 23:56:31;;;;;;;6.67;4.63;;;;;;;-144.32;100.00;68061.97;10429605;28;20123;-77
